Time;durP1;ratioP1;P1;durP2;ratioP2;P2;SDS_P1;SDS_P2;PMS_P1;PMS_P2;Temp;Humidity;BMP_temperature;BMP_pressure;BME280_temperature;BME280_humidity;BME280_pressure;Samples;Min_cycle;Max_cycle;Signal;HPM_P1;HPM_P2
2021/03/01 00:02:17;;;;;;;10.63;6.30;;;;;;;3.21;64.10;102118.41;5006478;28;20191;-68
2021/03/01 00:04:43;;;;;;;10.18;5.80;;;;;;;3.23;63.58;102120.03;5003185;28;20521;-67
2021/03/01 00:07:08;;;;;;;10.93;6.13;;;;;;;3.19;64.04;102116.72;4996463;28;20045;-67
2021/03/01 00:09:34;;;;;;;14.02;6.90;;;;;;;3.15;64.56;102119.53;4997627;28;20038;-67
2021/03/01 00:11:59;;;;;;;11.13;6.00;;;;;;;3.19;63.99;102121.94;4995519;28;20038;-68
2021/03/01 00:14:24;;;;;;;10.07;5.88;;;;;;;3.24;63.90;102120.88;4992379;28;20034;-69
2021/03/01 00:16:50;;;;;;;14.05;6.90;;;;;;;3.26;63.82;102121.66;5002069;28;20213;-68
2021/03/01 00:19:15;;;;;;;12.90;6.38;;;;;;;3.18;64.09;102120.22;5004580;28;20499;-68
2021/03/01 00:21:40;;;;;;;13.98;7.03;;;;;;;3.22;63.94;102120.09;5006027;28;20410;-68
2021/03/01 00:24:06;;;;;;;13.70;7.22;;;;;;;3.27;63.93;102123.38;4998000;28;20038;-69
2021/03/01 00:26:31;;;;;;;17.42;8.27;;;;;;;3.32;63.66;102117.03;4999291;28;20034;-68
2021/03/01 00:28:57;;;;;;;14.02;7.15;;;;;;;3.32;63.30;102121.41;4999894;28;20489;-68
2021/03/01 00:31:22;;;;;;;12.80;7.70;;;;;;;3.27;63.72;102121.59;5007985;28;20034;-68
2021/03/01 00:33:48;;;;;;;12.13;6.97;;;;;;;3.24;63.71;102118.25;5003368;28;20119;-68
2021/03/01 00:36:13;;;;;;;14.02;7.47;;;;;;;3.23;63.85;102119.19;5006205;28;20040;-68
2021/03/01 00:38:38;;;;;;;14.27;7.40;;;;;;;3.15;64.07;102117.75;5008928;28;20048;-68
2021/03/01 00:41:03;;;;;;;13.38;7.32;;;;;;;3.08;64.25;102124.16;5012502;28;20486;-68
2021/03/01 00:43:32;;;;;;;16.50;7.72;;;;;;;3.01;64.33;102122.69;4999995;28;20042;-68
2021/03/01 00:45:58;;;;;;;13.43;7.10;;;;;;;3.00;64.57;102123.59;5012185;28;20092;-68
2021/03/01 00:48:24;;;;;;;14.25;7.80;;;;;;;2.98;64.60;102126.28;5007866;28;20038;-69
2021/03/01 00:50:50;;;;;;;14.88;7.35;;;;;;;2.96;64.66;102119.44;5003242;28;20121;-68
2021/03/01 00:53:26;;;;;;;12.98;6.85;;;;;;;2.92;64.88;102125.69;4999370;28;20038;-69
2021/03/01 00:55:52;;;;;;;11.15;6.30;;;;;;;2.87;65.21;102125.03;5006068;28;20049;-68
2021/03/01 00:58:18;;;;;;;12.63;6.50;;;;;;;2.89;65.18;102118.00;4995886;28;20220;-67
2021/03/01 01:00:45;;;;;;;12.75;6.05;;;;;;;2.87;65.26;102118.03;5002874;28;20053;-68
2021/03/01 01:03:15;;;;;;;10.73;6.03;;;;;;;2.82;65.74;102113.94;4997132;28;20037;-68
2021/03/01 01:05:40;;;;;;;11.00;5.53;;;;;;;2.74;65.36;102120.31;5004603;28;20034;-68
2021/03/01 01:08:06;;;;;;;11.48;5.88;;;;;;;2.75;65.48;102126.38;5008316;28;20044;-69
2021/03/01 01:10:33;;;;;;;9.40;5.15;;;;;;;2.71;65.81;102123.03;4994339;28;20040;-68
2021/03/01 01:12:58;;;;;;;13.02;6.70;;;;;;;2.75;65.48;102124.63;5008323;28;20044;-68
2021/03/01 01:15:23;;;;;;;11.85;6.10;;;;;;;2.73;65.84;102123.81;5006108;28;20200;-68
2021/03/01 01:17:49;;;;;;;10.48;6.03;;;;;;;2.67;66.41;102121.47;5007850;28;20486;-68
2021/03/01 01:20:15;;;;;;;11.07;6.22;;;;;;;2.66;66.16;102117.16;5010637;28;20044;-68
2021/03/01 01:22:41;;;;;;;14.75;7.35;;;;;;;2.74;65.80;102119.44;5004090;28;20065;-68
2021/03/01 01:25:09;;;;;;;12.30;6.53;;;;;;;2.78;65.78;102125.41;5005041;28;20042;-68
2021/03/01 01:27:35;;;;;;;10.77;5.68;;;;;;;2.72;65.77;102113.44;4994942;28;20038;-68
2021/03/01 01:30:00;;;;;;;9.77;5.53;;;;;;;2.63;66.74;102111.22;5004364;28;20072;-68
2021/03/01 01:32:25;;;;;;;12.77;6.53;;;;;;;2.66;66.14;102111.91;4995167;28;20030;-69
2021/03/01 01:34:51;;;;;;;11.35;6.15;;;;;;;2.61;66.86;102106.03;4995374;28;20060;-68
2021/03/01 01:37:16;;;;;;;12.20;7.00;;;;;;;2.65;66.58;102110.22;5004105;28;20033;-68
2021/03/01 01:39:41;;;;;;;10.85;6.22;;;;;;;2.68;66.41;102114.47;5010487;28;20042;-68
2021/03/01 01:42:07;;;;;;;11.27;5.80;;;;;;;2.70;67.09;102102.22;5010812;28;20034;-69
2021/03/01 01:44:32;;;;;;;13.32;6.78;;;;;;;2.78;66.82;102100.13;5009976;28;20433;-69
2021/03/01 01:46:58;;;;;;;12.85;6.63;;;;;;;2.88;66.45;102093.59;5006478;28;20503;-68
2021/03/01 01:49:23;;;;;;;13.25;7.05;;;;;;;2.94;66.35;102093.34;5004673;28;20030;-68
2021/03/01 01:51:49;;;;;;;13.52;7.20;;;;;;;3.03;66.13;102092.13;4999893;28;20046;-69
2021/03/01 01:54:15;;;;;;;13.57;7.10;;;;;;;3.22;65.52;102091.34;5000873;28;20407;-69
2021/03/01 01:56:40;;;;;;;12.95;6.60;;;;;;;3.24;65.55;102085.13;5010271;28;20168;-68
2021/03/01 01:59:06;;;;;;;13.07;6.85;;;;;;;3.31;64.91;102089.19;5008184;28;20442;-69
2021/03/01 02:01:32;;;;;;;14.25;7.57;;;;;;;3.33;65.03;102084.72;5006883;28;20030;-69
2021/03/01 02:04:05;;;;;;;14.52;6.68;;;;;;;3.41;64.66;102092.25;5006005;28;20495;-69
2021/03/01 02:06:40;;;;;;;12.27;6.75;;;;;;;3.45;64.43;102085.97;5007547;28;20037;-69
2021/03/01 02:09:21;;;;;;;12.23;6.80;;;;;;;3.48;64.25;102093.69;4999441;28;20137;-69
2021/03/01 02:11:46;;;;;;;;;;;;;;;3.53;63.95;102088.25;4999351;28;20030;-68
2021/03/01 02:14:25;;;;;;;11.82;6.45;;;;;;;3.54;63.96;102093.41;5007509;28;20387;-69
2021/03/01 02:16:50;;;;;;;12.48;6.60;;;;;;;3.58;63.61;102081.06;4997851;28;20070;-68
2021/03/01 02:19:19;;;;;;;12.00;6.82;;;;;;;3.54;63.78;102088.16;5001053;28;20073;-68
2021/03/01 02:21:45;;;;;;;11.45;6.20;;;;;;;3.46;63.91;102079.81;5002540;28;20053;-69
2021/03/01 02:24:12;;;;;;;12.93;6.53;;;;;;;3.43;64.20;102086.94;4994530;28;20034;-69
2021/03/01 02:26:39;;;;;;;9.27;5.85;;;;;;;3.33;64.34;102083.88;4993447;28;20050;-69
2021/03/01 02:29:11;;;;;;;13.30;6.85;;;;;;;3.24;64.83;102077.28;5007970;28;20034;-68
2021/03/01 02:31:41;;;;;;;7.35;4.68;;;;;;;3.09;65.29;102076.19;5006025;28;20133;-69
2021/03/01 02:34:11;;;;;;;11.27;5.70;;;;;;;3.04;65.25;102077.28;5003878;28;20123;-70
2021/03/01 02:36:58;;;;;;;8.38;5.00;;;;;;;3.01;65.61;102074.81;5005989;28;20033;-69
2021/03/01 02:39:27;;;;;;;9.50;5.15;;;;;;;2.99;65.26;102074.88;5003834;28;20626;-69
2021/03/01 02:41:54;;;;;;;10.85;5.53;;;;;;;2.90;65.99;102080.47;4998363;28;20039;-68
2021/03/01 02:44:21;;;;;;;8.40;5.05;;;;;;;2.82;66.44;102082.56;4998679;28;20037;-69
2021/03/01 02:46:47;;;;;;;10.45;5.97;;;;;;;2.68;67.21;102070.91;5002007;28;20049;-69
2021/03/01 02:49:15;;;;;;;11.10;5.20;;;;;;;2.70;67.02;102078.72;5003491;28;20062;-68
2021/03/01 02:51:42;;;;;;;9.50;5.05;;;;;;;2.65;68.09;102078.91;4993133;28;20046;-69
2021/03/01 02:54:09;;;;;;;11.48;5.90;;;;;;;2.58;67.84;102082.66;4995138;28;20446;-69
2021/03/01 02:56:36;;;;;;;8.40;4.50;;;;;;;2.55;68.46;102085.38;4998683;28;20426;-68
2021/03/01 02:59:04;;;;;;;10.10;5.65;;;;;;;2.43;68.31;102080.66;5008865;28;20037;-69
2021/03/01 03:01:32;;;;;;;8.90;5.50;;;;;;;2.36;68.39;102072.25;5007111;28;20359;-68
2021/03/01 03:03:59;;;;;;;9.90;4.90;;;;;;;2.38;68.38;102075.59;4993072;28;20506;-69
2021/03/01 03:06:29;;;;;;;8.95;5.45;;;;;;;2.37;68.58;102073.06;5007814;28;20058;-69
2021/03/01 03:08:55;;;;;;;11.35;5.82;;;;;;;2.45;67.97;102076.22;4994289;28;20045;-68
2021/03/01 03:11:24;;;;;;;10.38;5.25;;;;;;;2.51;67.85;102076.00;5003308;28;20387;-69
2021/03/01 03:13:50;;;;;;;13.63;6.82;;;;;;;2.56;67.44;102066.22;4997847;28;20038;-68
2021/03/01 03:16:16;;;;;;;12.40;6.25;;;;;;;2.53;67.23;102069.78;4991523;28;20030;-69
2021/03/01 03:18:44;;;;;;;12.70;6.70;;;;;;;2.55;67.27;102074.94;4993477;28;20026;-68
2021/03/01 03:21:12;;;;;;;12.95;7.20;;;;;;;2.56;67.80;102071.44;5004214;28;20034;-69
2021/03/01 03:23:37;;;;;;;12.52;6.63;;;;;;;2.58;67.34;102067.00;5007483;28;20045;-68
2021/03/01 03:26:03;;;;;;;12.45;6.50;;;;;;;2.59;67.69;102063.47;5000318;28;20507;-68
2021/03/01 03:28:28;;;;;;;9.48;6.00;;;;;;;2.59;68.29;102055.63;5006358;28;20523;-68
2021/03/01 03:30:53;;;;;;;12.27;5.78;;;;;;;2.61;67.85;102055.56;5008700;28;20038;-68
2021/03/01 03:33:19;;;;;;;12.48;6.63;;;;;;;2.70;67.56;102055.19;5006394;28;20153;-68
2021/03/01 03:35:44;;;;;;;11.18;5.93;;;;;;;2.74;67.44;102057.63;5003684;28;20034;-68
2021/03/01 03:38:15;;;;;;;12.13;6.68;;;;;;;2.87;67.06;102060.56;5008028;28;20042;-71
2021/03/01 03:40:43;;;;;;;;;;;;;;;2.97;67.02;102069.72;4994581;28;20049;-69
2021/03/01 03:43:09;;;;;;;14.32;7.47;;;;;;;3.05;66.53;102066.78;4994273;28;19940;-69
2021/03/01 03:45:35;;;;;;;12.32;6.82;;;;;;;3.08;66.53;102068.41;5006812;28;20033;-68
2021/03/01 03:48:04;;;;;;;14.30;7.00;;;;;;;3.07;66.74;102064.94;4995619;28;20577;-70
2021/03/01 03:50:31;;;;;;;13.07;7.10;;;;;;;3.14;66.39;102068.97;5005419;28;20177;-68
2021/03/01 03:52:59;;;;;;;13.48;7.13;;;;;;;3.20;66.36;102070.50;4995871;28;20096;-68
2021/03/01 03:55:26;;;;;;;15.63;6.90;;;;;;;3.23;66.12;102074.75;5004285;28;20040;-68
2021/03/01 03:57:58;;;;;;;12.63;6.60;;;;;;;3.14;66.38;102073.38;4999947;28;20026;-68
2021/03/01 04:00:29;;;;;;;9.07;4.30;;;;;;;3.01;66.69;102074.81;5007130;28;20053;-68
2021/03/01 04:02:58;;;;;;;9.25;5.60;;;;;;;2.92;66.81;102073.44;4999340;28;20104;-68
2021/03/01 04:05:26;;;;;;;9.48;5.53;;;;;;;2.88;67.41;102077.94;4994009;28;20509;-68
2021/03/01 04:07:52;;;;;;;11.15;6.68;;;;;;;2.83;67.63;102073.81;5004181;28;20621;-68
2021/03/01 04:10:18;;;;;;;11.05;6.40;;;;;;;2.82;67.54;102074.75;5005526;28;20041;-68
2021/03/01 04:12:48;;;;;;;13.25;7.05;;;;;;;2.75;67.64;102072.38;5005002;28;20125;-68
2021/03/01 04:15:16;;;;;;;10.40;5.97;;;;;;;2.50;68.87;102077.75;5003937;28;20052;-68
2021/03/01 04:17:43;;;;;;;10.90;6.15;;;;;;;2.29;69.15;102074.22;5007568;28;20533;-68
2021/03/01 04:20:14;;;;;;;12.02;7.35;;;;;;;2.09;69.59;102075.00;5005261;28;20038;-69
2021/03/01 04:22:41;;;;;;;10.77;5.88;;;;;;;1.97;69.46;102074.63;5009367;28;20111;-68
2021/03/01 04:25:08;;;;;;;11.70;6.60;;;;;;;1.81;70.95;102076.94;5006478;28;20394;-68
2021/03/01 04:27:37;;;;;;;11.85;5.90;;;;;;;1.73;71.68;102074.63;5010014;28;20450;-68
2021/03/01 04:30:06;;;;;;;11.07;5.90;;;;;;;1.79;70.70;102070.94;5005008;28;20029;-68
2021/03/01 04:32:33;;;;;;;12.63;6.47;;;;;;;1.80;71.71;102073.50;5012320;28;20038;-68
2021/03/01 04:35:00;;;;;;;12.85;6.63;;;;;;;1.71;71.21;102079.03;4993891;28;20065;-68
2021/03/01 04:37:25;;;;;;;12.50;6.75;;;;;;;1.62;72.06;102084.59;5002812;28;20429;-68
2021/03/01 04:39:51;;;;;;;12.43;6.90;;;;;;;1.51;71.71;102081.53;5009897;28;20030;-68
2021/03/01 04:42:17;;;;;;;10.35;5.80;;;;;;;1.45;71.37;102078.25;5011066;28;20038;-69
2021/03/01 04:44:46;;;;;;;10.55;6.15;;;;;;;1.35;71.79;102073.41;5009569;28;20026;-68
2021/03/01 04:47:14;;;;;;;11.18;6.35;;;;;;;1.22;73.01;102078.22;5012243;28;20104;-68
2021/03/01 04:49:40;;;;;;;10.65;5.68;;;;;;;1.23;73.60;102074.69;5003125;28;20045;-68
2021/03/01 04:52:06;;;;;;;13.80;6.95;;;;;;;1.14;74.13;102073.25;5009511;28;20081;-69
2021/03/01 04:54:32;;;;;;;11.35;6.35;;;;;;;1.43;72.33;102081.78;5002747;28;20040;-68
2021/03/01 04:56:58;;;;;;;11.40;6.22;;;;;;;1.65;72.57;102080.13;4995305;28;20034;-69
2021/03/01 04:59:24;;;;;;;9.52;5.47;;;;;;;1.77;71.43;102081.44;4999509;28;20082;-68
2021/03/01 05:01:51;;;;;;;12.50;6.57;;;;;;;1.78;72.33;102074.44;5003954;28;20410;-68
2021/03/01 05:04:17;;;;;;;11.68;6.40;;;;;;;1.97;71.72;102077.22;5009957;28;20026;-69
2021/03/01 05:06:43;;;;;;;14.05;7.35;;;;;;;2.13;70.93;102080.94;5000535;28;20041;-68
2021/03/01 05:09:09;;;;;;;12.25;7.20;;;;;;;2.28;70.39;102080.34;5000361;28;20025;-68
2021/03/01 05:11:38;;;;;;;13.88;7.32;;;;;;;2.39;69.90;102076.47;5005759;28;20127;-69
2021/03/01 05:14:05;;;;;;;11.88;6.28;;;;;;;2.42;69.95;102071.13;4999752;28;20209;-68
2021/03/01 05:16:31;;;;;;;13.27;7.72;;;;;;;2.59;69.14;102078.28;4980335;28;20060;-69
2021/03/01 05:18:57;;;;;;;14.63;7.60;;;;;;;2.67;68.87;102081.41;5001978;28;20557;-68
2021/03/01 05:21:24;;;;;;;12.32;6.70;;;;;;;2.67;68.73;102079.69;5006436;28;20054;-69
2021/03/01 05:23:50;;;;;;;14.57;7.13;;;;;;;2.72;68.59;102075.13;5005030;28;20030;-68
2021/03/01 05:26:16;;;;;;;14.18;8.50;;;;;;;2.82;68.35;102075.59;4995703;28;20069;-69
2021/03/01 05:28:42;;;;;;;14.38;7.45;;;;;;;2.78;68.41;102078.38;4997259;28;20491;-68
2021/03/01 05:31:08;;;;;;;13.00;7.20;;;;;;;2.79;68.25;102074.84;5000726;28;20053;-69
2021/03/01 05:33:33;;;;;;;14.85;7.47;;;;;;;2.84;68.17;102078.16;5003780;28;20037;-69
2021/03/01 05:35:59;;;;;;;13.07;7.65;;;;;;;2.81;68.44;102073.88;5005332;28;20406;-69
2021/03/01 05:38:24;;;;;;;14.00;7.45;;;;;;;2.78;68.49;102078.38;5009913;28;20056;-69
2021/03/01 05:40:50;;;;;;;14.25;7.82;;;;;;;2.86;68.12;102073.69;4998259;28;20057;-69
2021/03/01 05:43:18;;;;;;;14.98;8.05;;;;;;;2.81;68.39;102080.84;4995198;28;20375;-68
2021/03/01 05:45:44;;;;;;;11.07;6.20;;;;;;;2.82;68.17;102078.19;4995230;28;20060;-69
2021/03/01 05:48:10;;;;;;;13.98;7.05;;;;;;;2.85;68.17;102087.66;5005938;28;20031;-69
2021/03/01 05:50:40;;;;;;;13.30;7.35;;;;;;;3.00;67.72;102083.56;5009287;28;20026;-69
2021/03/01 05:53:08;;;;;;;13.75;7.03;;;;;;;3.07;67.66;102085.84;4992653;28;20093;-69
2021/03/01 05:55:34;;;;;;;12.75;6.90;;;;;;;3.05;67.57;102086.81;5002520;28;20036;-69
2021/03/01 05:58:01;;;;;;;12.88;7.35;;;;;;;3.22;66.84;102083.50;5009968;28;20493;-68
2021/03/01 06:00:28;;;;;;;13.00;7.18;;;;;;;3.21;66.87;102087.88;5007687;28;20040;-68
2021/03/01 06:02:55;;;;;;;13.45;7.68;;;;;;;3.16;66.88;102084.63;5010835;28;20057;-68
2021/03/01 06:05:21;;;;;;;12.68;6.95;;;;;;;3.05;67.44;102081.59;5009514;28;20030;-68
2021/03/01 06:07:48;;;;;;;13.20;7.10;;;;;;;3.12;67.10;102078.69;5009551;28;20048;-69
2021/03/01 06:10:13;;;;;;;13.48;7.07;;;;;;;3.10;67.34;102083.13;5008595;28;20042;-69
2021/03/01 06:12:38;;;;;;;17.30;9.00;;;;;;;3.11;67.34;102083.97;5002003;28;20433;-69
2021/03/01 06:15:05;;;;;;;14.30;7.78;;;;;;;3.18;67.02;102085.41;4997264;28;20033;-69
2021/03/01 06:17:30;;;;;;;15.63;7.85;;;;;;;3.23;66.84;102079.97;4998771;28;20050;-68
2021/03/01 06:19:59;;;;;;;14.63;7.22;;;;;;;3.19;67.19;102085.34;4998278;28;20485;-68
2021/03/01 06:22:43;;;;;;;13.45;7.68;;;;;;;3.30;66.64;102091.88;5000707;28;20030;-69
2021/03/01 06:25:14;;;;;;;14.93;7.38;;;;;;;3.32;66.60;102092.66;5005542;28;20040;-69
2021/03/01 06:27:56;;;;;;;12.73;7.38;;;;;;;3.28;66.94;102088.47;5003485;28;20045;-69
2021/03/01 06:30:25;;;;;;;14.15;7.50;;;;;;;3.30;66.76;102095.31;5005290;28;20033;-69
2021/03/01 06:33:12;;;;;;;12.13;7.05;;;;;;;3.24;67.04;102098.19;5008265;28;20041;-69
2021/03/01 06:35:43;;;;;;;12.85;6.80;;;;;;;3.21;67.35;102095.72;5007501;28;20038;-69
2021/03/01 06:38:25;;;;;;;11.95;7.53;;;;;;;3.25;67.05;102114.75;4993811;28;20069;-69
2021/03/01 06:41:05;;;;;;;14.05;7.88;;;;;;;3.34;66.85;102103.91;5001453;28;20034;-68
2021/03/01 06:43:31;;;;;;;11.52;6.88;;;;;;;3.33;66.96;102100.41;5002461;28;20029;-69
2021/03/01 06:46:14;;;;;;;13.70;8.05;;;;;;;3.40;66.84;102114.91;5002555;28;20398;-68
2021/03/01 06:48:41;;;;;;;14.25;8.68;;;;;;;3.52;66.29;102113.53;5005922;28;20187;-68
2021/03/01 06:51:07;;;;;;;14.32;8.43;;;;;;;3.61;65.93;102109.69;5000526;28;20559;-69
2021/03/01 06:53:33;;;;;;;13.70;6.40;;;;;;;3.55;66.18;102112.56;5006706;28;20038;-69
2021/03/01 06:56:04;;;;;;;16.27;9.05;;;;;;;3.61;66.13;102112.28;4999764;28;20033;-69
2021/03/01 06:58:40;;;;;;;12.50;6.80;;;;;;;3.66;65.70;102119.94;4998677;28;20045;-69
2021/03/01 07:01:21;;;;;;;13.07;7.65;;;;;;;3.52;66.57;102118.78;4994198;28;20503;-69
2021/03/01 07:03:49;;;;;;;12.77;7.60;;;;;;;3.64;66.23;102125.22;5005900;28;20090;-69
2021/03/01 07:06:15;;;;;;;13.02;7.47;;;;;;;3.80;65.94;102125.41;4998085;28;20034;-69
2021/03/01 07:08:48;;;;;;;14.45;7.93;;;;;;;3.99;65.21;102128.88;5007985;28;20146;-69
2021/03/01 07:11:30;;;;;;;13.57;7.78;;;;;;;4.47;64.15;102130.13;5009566;28;20109;-69
2021/03/01 07:14:05;;;;;;;13.40;7.28;;;;;;;5.05;62.12;102130.84;5001770;28;20066;-69
2021/03/01 07:16:50;;;;;;;11.57;6.90;;;;;;;5.46;62.17;102134.00;5006168;28;20062;-68
2021/03/01 07:19:18;;;;;;;11.27;7.00;;;;;;;5.82;60.58;102133.00;4990731;28;20045;-69
2021/03/01 07:21:47;;;;;;;13.55;7.53;;;;;;;6.56;59.08;102143.00;5001211;28;20429;-69
2021/03/01 07:24:16;;;;;;;15.52;7.80;;;;;;;7.38;56.58;102146.19;5007914;28;20121;-69
2021/03/01 07:26:43;;;;;;;19.60;9.32;;;;;;;8.07;54.54;102147.28;5006527;28;20092;-68
2021/03/01 07:29:13;;;;;;;13.65;8.00;;;;;;;8.50;51.77;102136.69;4993239;28;20092;-69
2021/03/01 07:32:03;;;;;;;23.27;11.43;;;;;;;8.94;51.55;102138.22;4991677;28;20042;-69
2021/03/01 07:34:29;;;;;;;23.60;10.90;;;;;;;8.84;51.50;102138.00;4997646;28;20061;-69
2021/03/01 07:36:59;;;;;;;20.83;9.43;;;;;;;8.60;51.47;102139.56;4998281;28;20069;-69
2021/03/01 07:39:26;;;;;;;24.88;11.13;;;;;;;8.60;51.94;102139.56;4992648;28;20039;-68
2021/03/01 07:41:53;;;;;;;16.10;8.52;;;;;;;8.00;52.05;102145.97;4990603;28;20042;-68
2021/03/01 07:44:28;;;;;;;13.02;7.95;;;;;;;7.48;53.01;102143.88;4999614;28;20056;-68
2021/03/01 07:46:54;;;;;;;14.48;8.82;;;;;;;7.18;53.31;102142.13;5004406;28;20068;-68
2021/03/01 07:49:41;;;;;;;13.27;7.50;;;;;;;6.57;55.69;102146.47;5001094;28;20030;-68
2021/03/01 07:52:07;;;;;;;13.18;7.93;;;;;;;6.38;56.19;102151.91;4991845;28;20048;-68
2021/03/01 07:54:52;;;;;;;14.27;8.60;;;;;;;6.41;56.57;102151.72;4997934;28;20112;-68
2021/03/01 07:57:18;;;;;;;10.73;6.35;;;;;;;6.17;57.45;102140.78;4990028;28;20038;-68
2021/03/01 07:59:44;;;;;;;13.52;7.53;;;;;;;6.24;57.23;102149.19;4989974;28;20463;-68
2021/03/01 08:02:22;;;;;;;11.63;6.90;;;;;;;6.21;57.25;102154.63;5008452;28;20038;-68
2021/03/01 08:04:48;;;;;;;14.95;8.10;;;;;;;6.18;57.42;102155.63;5001475;28;20497;-68
2021/03/01 08:07:14;;;;;;;13.65;8.20;;;;;;;6.22;57.49;102148.41;5003257;28;20073;-68
2021/03/01 08:09:48;;;;;;;12.90;7.57;;;;;;;6.25;58.06;102150.91;4999188;28;20441;-68
2021/03/01 08:12:36;;;;;;;14.35;8.07;;;;;;;6.07;58.22;102148.31;4993634;28;20109;-69
2021/03/01 08:15:10;;;;;;;13.48;8.60;;;;;;;6.29;56.95;102144.53;4989707;28;20117;-68
2021/03/01 08:17:38;;;;;;;13.02;8.10;;;;;;;6.21;57.82;102144.13;4989652;28;20049;-68
2021/03/01 08:20:15;;;;;;;13.50;8.18;;;;;;;6.25;57.76;102141.22;5001895;28;20022;-69
2021/03/01 08:25:49;;;;;;;13.27;7.53;;;;;;;6.38;57.27;102138.78;4990261;28;20080;-68
2021/03/01 08:28:17;;;;;;;14.73;7.65;;;;;;;6.32;57.86;102139.97;4997434;28;20065;-69
2021/03/01 08:30:43;;;;;;;16.50;8.65;;;;;;;6.34;57.76;102131.97;5005597;28;20557;-68
2021/03/01 08:33:08;;;;;;;13.10;7.67;;;;;;;6.47;57.28;102133.00;5009352;28;20080;-68
2021/03/01 08:35:51;;;;;;;14.73;8.38;;;;;;;6.53;57.21;102143.19;5001901;28;20289;-68
2021/03/01 08:38:37;;;;;;;13.48;8.20;;;;;;;6.83;56.37;102136.28;4986390;28;20126;-68
2021/03/01 08:41:03;;;;;;;13.60;7.30;;;;;;;7.58;56.50;102139.72;5005260;28;20041;-69
2021/03/01 08:43:34;;;;;;;14.07;8.55;;;;;;;9.00;54.88;102147.50;5009047;28;20103;-69
2021/03/01 08:45:59;;;;;;;11.50;7.22;;;;;;;10.18;51.05;102155.25;5009611;28;20042;-71
2021/03/01 08:48:25;;;;;;;10.85;6.57;;;;;;;11.48;51.09;102144.78;5003774;28;20038;-70
2021/03/01 08:50:53;;;;;;;11.98;7.63;;;;;;;12.11;45.12;102150.53;5005119;28;20457;-70
2021/03/01 08:53:21;;;;;;;10.52;6.60;;;;;;;13.17;45.85;102147.16;4999059;28;20041;-71
2021/03/01 08:55:47;;;;;;;11.13;7.55;;;;;;;13.88;41.55;102151.81;5004992;28;20057;-70
2021/03/01 08:58:14;;;;;;;12.07;7.28;;;;;;;14.63;42.98;102150.47;5007871;28;20034;-71
2021/03/01 09:00:50;;;;;;;9.95;7.05;;;;;;;15.30;41.33;102148.78;5013317;28;20031;-70
2021/03/01 09:03:23;;;;;;;12.25;7.18;;;;;;;15.91;40.25;102145.69;4996630;28;20518;-70
2021/03/01 09:05:50;;;;;;;11.57;7.70;;;;;;;16.46;37.46;102152.00;4995186;28;20140;-71
2021/03/01 09:08:37;;;;;;;10.88;7.43;;;;;;;16.46;36.34;102143.97;4999566;28;20026;-69
2021/03/01 09:11:25;;;;;;;13.13;8.50;;;;;;;16.50;34.07;102140.84;5021688;28;20230;-69
2021/03/01 09:13:57;;;;;;;8.55;5.90;;;;;;;16.99;36.15;102143.16;4993458;28;20034;-70
2021/03/01 09:16:25;;;;;;;10.40;8.00;;;;;;;17.33;34.89;102143.28;5001234;28;20129;-70
2021/03/01 09:18:59;;;;;;;8.88;6.45;;;;;;;16.95;33.48;102133.81;5005282;28;20060;-70
2021/03/01 09:21:24;;;;;;;9.20;6.93;;;;;;;16.06;35.60;102142.53;5002034;28;20196;-70
2021/03/01 09:23:54;;;;;;;7.40;5.72;;;;;;;16.70;37.42;102141.53;5001210;28;20117;-70
2021/03/01 09:26:25;;;;;;;8.25;5.75;;;;;;;17.25;33.77;102134.34;4992403;28;20039;-70
2021/03/01 09:28:53;;;;;;;8.45;5.78;;;;;;;17.05;34.31;102134.53;5004928;28;20057;-71
2021/03/01 09:31:18;;;;;;;9.43;6.60;;;;;;;18.01;34.15;102137.13;5004189;28;20069;-69
2021/03/01 09:33:45;;;;;;;8.95;6.65;;;;;;;17.46;34.51;102132.16;5001903;28;20037;-70
2021/03/01 09:36:11;;;;;;;7.43;5.50;;;;;;;16.81;35.83;102129.84;5004544;28;20058;-70
2021/03/01 09:38:37;;;;;;;10.57;7.07;;;;;;;15.56;37.42;102126.81;4991945;28;20053;-69
2021/03/01 09:41:21;;;;;;;9.30;6.68;;;;;;;14.23;39.17;102128.25;4990898;28;20031;-70
2021/03/01 09:43:50;;;;;;;11.00;8.10;;;;;;;12.90;41.75;102121.13;4992553;28;20498;-70
2021/03/01 09:46:17;;;;;;;9.77;6.53;;;;;;;12.74;42.55;102124.19;5007582;28;20433;-70
2021/03/01 09:48:47;;;;;;;11.52;8.18;;;;;;;11.73;44.22;102121.69;5004522;28;20053;-71
2021/03/01 09:51:13;;;;;;;11.90;8.03;;;;;;;11.56;44.76;102118.56;5004336;28;20038;-70
2021/03/01 09:53:39;;;;;;;11.70;7.85;;;;;;;11.21;46.50;102114.16;4995064;28;20288;-70
2021/03/01 09:56:05;;;;;;;10.90;7.53;;;;;;;10.83;47.42;102114.41;4996725;28;20035;-70
2021/03/01 09:58:33;;;;;;;11.95;8.30;;;;;;;10.60;48.80;102114.28;4995266;28;20033;-70
2021/03/01 10:01:08;;;;;;;13.70;8.80;;;;;;;10.55;48.65;102115.59;5005727;28;20037;-70
2021/03/01 10:03:36;;;;;;;11.75;8.43;;;;;;;10.63;47.74;102116.75;4991699;28;20034;-70
2021/03/01 10:06:01;;;;;;;11.18;7.53;;;;;;;10.37;48.95;102113.34;4991896;28;20126;-71
2021/03/01 10:08:27;;;;;;;11.13;6.95;;;;;;;10.35;49.18;102109.97;4994992;28;20113;-69
2021/03/01 10:10:52;;;;;;;10.68;7.68;;;;;;;10.29;49.59;102109.56;5010747;28;20034;-70
2021/03/01 10:13:29;;;;;;;10.93;7.10;;;;;;;10.10;50.47;102110.00;5001418;28;20061;-72
2021/03/01 10:15:55;;;;;;;11.35;6.80;;;;;;;10.25;50.31;102101.00;4996582;28;20382;-70
2021/03/01 10:18:25;;;;;;;13.55;8.80;;;;;;;10.36;49.40;102102.88;5003008;28;20022;-69
2021/03/01 10:21:05;;;;;;;11.73;7.95;;;;;;;10.49;49.15;102102.84;5011378;28;20040;-70
2021/03/01 10:23:33;;;;;;;13.20;7.93;;;;;;;10.60;49.04;102105.53;5007348;28;20049;-70
2021/03/01 10:26:05;;;;;;;13.30;9.13;;;;;;;10.79;47.78;102100.53;4991595;28;20125;-70
2021/03/01 10:28:33;;;;;;;10.77;6.97;;;;;;;10.94;48.39;102097.72;5003909;28;20033;-70
2021/03/01 10:31:13;;;;;;;12.13;7.63;;;;;;;11.04;47.61;102093.44;5005317;28;20048;-70
2021/03/01 10:34:10;;;;;;;13.68;8.77;;;;;;;11.27;46.30;102091.66;4999984;28;20049;-71
2021/03/01 10:36:47;;;;;;;10.43;7.07;;;;;;;10.99;47.18;102092.94;4978879;28;20026;-70
2021/03/01 10:39:29;;;;;;;13.50;7.70;;;;;;;10.99;47.66;102085.00;5000641;28;20034;-70
2021/03/01 10:42:02;;;;;;;13.73;9.10;;;;;;;10.87;47.75;102085.91;4997878;28;20415;-71
2021/03/01 10:44:33;;;;;;;11.77;8.65;;;;;;;10.74;47.92;102075.41;4990886;28;20065;-70
2021/03/01 10:47:12;;;;;;;12.38;7.95;;;;;;;10.77;48.36;102083.09;4999041;28;20121;-70
2021/03/01 10:49:37;;;;;;;10.15;7.28;;;;;;;10.86;47.60;102081.56;5006279;28;20040;-70
2021/03/01 10:52:07;;;;;;;12.07;8.57;;;;;;;10.84;47.18;102077.25;4992375;28;20039;-71
2021/03/01 10:54:32;;;;;;;13.93;7.70;;;;;;;10.69;48.75;102085.50;5000176;28;20033;-70
2021/03/01 10:56:57;;;;;;;12.30;7.35;;;;;;;10.71;48.27;102073.00;5005013;28;20045;-71
2021/03/01 10:59:23;;;;;;;13.00;7.60;;;;;;;10.95;47.69;102073.78;5007103;28;20124;-70
2021/03/01 11:01:48;;;;;;;9.82;6.70;;;;;;;10.96;48.80;102064.88;4998262;28;20197;-69
2021/03/01 11:04:15;;;;;;;14.70;8.75;;;;;;;11.08;47.16;102067.56;4992978;28;20439;-71
2021/03/01 11:06:41;;;;;;;10.57;6.85;;;;;;;11.06;47.83;102078.28;5002034;28;20425;-70
2021/03/01 11:09:10;;;;;;;11.32;8.52;;;;;;;11.08;47.25;102068.38;5003108;28;20045;-69
2021/03/01 11:11:36;;;;;;;11.80;7.30;;;;;;;11.04;48.33;102065.16;4990717;28;20122;-69
2021/03/01 11:14:02;;;;;;;12.73;7.85;;;;;;;11.29;47.57;102065.91;4998622;28;20128;-70
2021/03/01 11:16:28;;;;;;;9.90;6.20;;;;;;;11.37;48.49;102057.34;5009133;28;20042;-71
2021/03/01 11:18:53;;;;;;;12.05;8.18;;;;;;;11.45;47.22;102063.75;4997064;28;20097;-71
2021/03/01 11:21:19;;;;;;;13.10;8.15;;;;;;;11.45;46.43;102058.47;4990773;28;20034;-70
2021/03/01 11:23:44;;;;;;;12.57;7.82;;;;;;;11.42;46.66;102057.88;4990441;28;20122;-71
2021/03/01 11:26:10;;;;;;;11.50;7.75;;;;;;;11.42;46.57;102050.75;4989620;28;20443;-70
2021/03/01 11:28:36;;;;;;;10.95;7.55;;;;;;;11.59;46.16;102048.59;4998594;28;20088;-70
2021/03/01 11:31:01;;;;;;;12.02;7.90;;;;;;;11.54;47.46;102045.47;4990036;28;20036;-72
2021/03/01 11:33:27;;;;;;;14.18;8.43;;;;;;;11.67;46.08;102044.34;5002462;28;20060;-69
2021/03/01 11:35:54;;;;;;;12.80;7.88;;;;;;;11.64;45.99;102044.59;5004400;28;20447;-70